Аэропорт: Магнитогорск. Магнитогорск

ICAO: USCM

METAR:
2020-06-01 01:00:00
USCM 010100Z 25005MPS 9999 SCT040CB 17/11 Q1008 R18/090060 TEMPO 25015MPS RMK QFE719
METAR:
Информация по данной станции не доступна